sensor_id;sensor_type;location;lat;lon;timestamp;temperature;humidity
55365;DHT22;41245;45.384;20.390;2022-09-21T00:01:58;281.80;6528.00
55365;DHT22;41245;45.384;20.390;2022-09-21T00:04:24;281.80;6528.00
55365;DHT22;41245;45.384;20.390;2022-09-21T00:06:49;281.70;6528.00
55365;DHT22;41245;45.384;20.390;2022-09-21T00:09:15;281.70;6528.00
55365;DHT22;41245;45.384;20.390;2022-09-21T00:11:41;281.70;6528.00
55365;DHT22;41245;45.384;20.390;2022-09-21T00:14:10;281.70;6528.00
55365;DHT22;41245;45.384;20.390;2022-09-21T00:16:37;281.70;6528.00
55365;DHT22;41245;45.384;20.390;2022-09-21T00:19:03;281.70;6528.00
55365;DHT22;41245;45.384;20.390;2022-09-21T00:21:29;281.70;6528.00
55365;DHT22;41245;45.384;20.390;2022-09-21T00:23:55;281.70;6528.00
55365;DHT22;41245;45.384;20.390;2022-09-21T00:26:23;281.70;6528.00
55365;DHT22;41245;45.384;20.390;2022-09-21T00:28:57;281.70;6528.00
55365;DHT22;41245;45.384;20.390;2022-09-21T00:31:23;281.60;6528.00
55365;DHT22;41245;45.384;20.390;2022-09-21T00:33:49;256.60;6502.40
55365;DHT22;41245;45.384;20.390;2022-09-21T00:36:17;256.90;6502.40
55365;DHT22;41245;45.384;20.390;2022-09-21T00:38:50;256.90;6502.40
55365;DHT22;41245;45.384;20.390;2022-09-21T00:41:16;256.90;6502.40
55365;DHT22;41245;45.384;20.390;2022-09-21T00:43:46;256.90;6502.40
55365;DHT22;41245;45.384;20.390;2022-09-21T00:46:19;256.90;6502.40
55365;DHT22;41245;45.384;20.390;2022-09-21T00:48:47;256.90;6502.40
55365;DHT22;41245;45.384;20.390;2022-09-21T00:51:13;256.90;6502.40
55365;DHT22;41245;45.384;20.390;2022-09-21T00:53:39;256.80;6502.40
55365;DHT22;41245;45.384;20.390;2022-09-21T00:56:06;256.80;6502.40
55365;DHT22;41245;45.384;20.390;2022-09-21T00:58:46;256.70;6502.40
55365;DHT22;41245;45.384;20.390;2022-09-21T01:01:15;256.70;6502.40
55365;DHT22;41245;45.384;20.390;2022-09-21T01:03:43;256.70;6502.40
55365;DHT22;41245;45.384;20.390;2022-09-21T01:06:14;256.70;6502.40
55365;DHT22;41245;45.384;20.390;2022-09-21T01:08:41;256.60;6502.40
55365;DHT22;41245;45.384;20.390;2022-09-21T01:16:22;256.60;6502.40
55365;DHT22;41245;45.384;20.390;2022-09-21T01:21:33;256.60;6502.40
55365;DHT22;41245;45.384;20.390;2022-09-21T01:24:11;256.50;6502.40
55365;DHT22;41245;45.384;20.390;2022-09-21T01:29:36;256.50;6502.40
55365;DHT22;41245;45.384;20.390;2022-09-21T01:32:13;256.50;6502.40
55365;DHT22;41245;45.384;20.390;2022-09-21T01:34:48;256.50;6502.40
55365;DHT22;41245;45.384;20.390;2022-09-21T01:37:19;256.40;6502.40
55365;DHT22;41245;45.384;20.390;2022-09-21T01:39:50;256.40;6502.40
55365;DHT22;41245;45.384;20.390;2022-09-21T01:42:19;256.40;6502.40
55365;DHT22;41245;45.384;20.390;2022-09-21T01:44:46;256.40;6502.40
55365;DHT22;41245;45.384;20.390;2022-09-21T01:47:15;256.40;6502.40
55365;DHT22;41245;45.384;20.390;2022-09-21T01:49:45;256.40;6502.40
55365;DHT22;41245;45.384;20.390;2022-09-21T01:52:28;256.40;6502.40
55365;DHT22;41245;45.384;20.390;2022-09-21T01:55:02;256.40;6502.40
55365;DHT22;41245;45.384;20.390;2022-09-21T01:57:48;256.40;6502.40
55365;DHT22;41245;45.384;20.390;2022-09-21T02:00:15;256.30;6502.40
55365;DHT22;41245;45.384;20.390;2022-09-21T02:02:46;256.30;6502.40
55365;DHT22;41245;45.384;20.390;2022-09-21T02:05:14;256.30;6502.40
55365;DHT22;41245;45.384;20.390;2022-09-21T02:07:41;256.30;6502.40
55365;DHT22;41245;45.384;20.390;2022-09-21T02:10:09;256.20;6502.40
55365;DHT22;41245;45.384;20.390;2022-09-21T02:12:38;256.20;6502.40
55365;DHT22;41245;45.384;20.390;2022-09-21T02:15:05;256.10;6502.40
55365;DHT22;41245;45.384;20.390;2022-09-21T02:20:23;256.20;6502.40
55365;DHT22;41245;45.384;20.390;2022-09-21T02:23:21;256.20;6502.40
55365;DHT22;41245;45.384;20.390;2022-09-21T02:26:11;256.10;6502.40
55365;DHT22;41245;45.384;20.390;2022-09-21T02:37:02;256.10;6502.40
55365;DHT22;41245;45.384;20.390;2022-09-21T02:44:38;256.10;6502.40
55365;DHT22;41245;45.384;20.390;2022-09-21T02:47:21;256.10;6502.40
55365;DHT22;41245;45.384;20.390;2022-09-21T02:49:51;256.10;6502.40
55365;DHT22;41245;45.384;20.390;2022-09-21T02:52:20;256.10;6502.40
55365;DHT22;41245;45.384;20.390;2022-09-21T02:54:51;256.00;6502.40
55365;DHT22;41245;45.384;20.390;2022-09-21T02:57:19;256.00;6502.40
55365;DHT22;41245;45.384;20.390;2022-09-21T02:59:46;256.00;6502.40
55365;DHT22;41245;45.384;20.390;2022-09-21T03:02:12;256.00;6502.40
55365;DHT22;41245;45.384;20.390;2022-09-21T03:04:43;256.00;6502.40
55365;DHT22;41245;45.384;20.390;2022-09-21T03:07:13;231.30;6502.40
55365;DHT22;41245;45.384;20.390;2022-09-21T03:09:39;231.30;6502.40
55365;DHT22;41245;45.384;20.390;2022-09-21T03:12:05;231.30;6502.40
55365;DHT22;41245;45.384;20.390;2022-09-21T03:14:31;231.30;6502.40
55365;DHT22;41245;45.384;20.390;2022-09-21T03:16:58;231.20;6502.40
55365;DHT22;41245;45.384;20.390;2022-09-21T03:19:25;231.20;6502.40
55365;DHT22;41245;45.384;20.390;2022-09-21T03:21:51;231.20;6502.40
55365;DHT22;41245;45.384;20.390;2022-09-21T03:24:19;231.20;6502.40
55365;DHT22;41245;45.384;20.390;2022-09-21T03:27:05;256.20;6502.40
55365;DHT22;41245;45.384;20.390;2022-09-21T03:29:31;231.20;6502.40
55365;DHT22;41245;45.384;20.390;2022-09-21T03:31:57;231.20;6502.40
55365;DHT22;41245;45.384;20.390;2022-09-21T03:34:23;231.20;6502.40
55365;DHT22;41245;45.384;20.390;2022-09-21T03:36:48;231.20;6502.40
55365;DHT22;41245;45.384;20.390;2022-09-21T03:39:14;231.10;6502.40
55365;DHT22;41245;45.384;20.390;2022-09-21T03:41:40;231.10;6502.40
55365;DHT22;41245;45.384;20.390;2022-09-21T03:44:05;231.20;6502.40
55365;DHT22;41245;45.384;20.390;2022-09-21T03:46:31;231.20;6502.40
55365;DHT22;41245;45.384;20.390;2022-09-21T03:49:00;231.20;6502.40
55365;DHT22;41245;45.384;20.390;2022-09-21T03:51:27;231.20;6502.40
55365;DHT22;41245;45.384;20.390;2022-09-21T03:53:56;231.30;6502.40
55365;DHT22;41245;45.384;20.390;2022-09-21T03:56:22;231.30;6502.40
55365;DHT22;41245;45.384;20.390;2022-09-21T03:58:48;231.30;6502.40
55365;DHT22;41245;45.384;20.390;2022-09-21T04:01:14;231.30;6502.40
55365;DHT22;41245;45.384;20.390;2022-09-21T04:03:39;231.30;6502.40
55365;DHT22;41245;45.384;20.390;2022-09-21T04:06:09;231.30;6502.40
55365;DHT22;41245;45.384;20.390;2022-09-21T04:08:36;231.30;6502.40
55365;DHT22;41245;45.384;20.390;2022-09-21T04:11:11;231.30;6502.40
55365;DHT22;41245;45.384;20.390;2022-09-21T04:13:37;231.30;6502.40
55365;DHT22;41245;45.384;20.390;2022-09-21T04:16:03;231.30;6502.40
55365;DHT22;41245;45.384;20.390;2022-09-21T04:18:29;231.30;6502.40
55365;DHT22;41245;45.384;20.390;2022-09-21T04:20:55;231.30;6502.40
55365;DHT22;41245;45.384;20.390;2022-09-21T04:23:20;231.30;6502.40
55365;DHT22;41245;45.384;20.390;2022-09-21T04:25:48;231.30;6502.40
55365;DHT22;41245;45.384;20.390;2022-09-21T04:28:16;231.30;6502.40
55365;DHT22;41245;45.384;20.390;2022-09-21T04:30:42;231.30;6502.40
55365;DHT22;41245;45.384;20.390;2022-09-21T04:33:07;231.30;6502.40
55365;DHT22;41245;45.384;20.390;2022-09-21T04:35:33;256.00;6502.40
55365;DHT22;41245;45.384;20.390;2022-09-21T04:37:59;256.00;6502.40
55365;DHT22;41245;45.384;20.390;2022-09-21T04:40:24;256.00;6502.40
55365;DHT22;41245;45.384;20.390;2022-09-21T04:42:51;256.00;6502.40
55365;DHT22;41245;45.384;20.390;2022-09-21T04:45:21;256.10;6502.40
55365;DHT22;41245;45.384;20.390;2022-09-21T04:47:47;256.10;6502.40
55365;DHT22;41245;45.384;20.390;2022-09-21T04:50:13;256.20;6502.40
55365;DHT22;41245;45.384;20.390;2022-09-21T04:52:39;256.30;6502.40
55365;DHT22;41245;45.384;20.390;2022-09-21T04:55:06;256.30;6502.40
55365;DHT22;41245;45.384;20.390;2022-09-21T04:57:32;256.30;6502.40
55365;DHT22;41245;45.384;20.390;2022-09-21T04:59:58;256.30;6502.40
55365;DHT22;41245;45.384;20.390;2022-09-21T05:02:23;256.30;6502.40
55365;DHT22;41245;45.384;20.390;2022-09-21T05:04:49;256.30;6502.40
55365;DHT22;41245;45.384;20.390;2022-09-21T05:07:15;256.40;6502.40
55365;DHT22;41245;45.384;20.390;2022-09-21T05:09:41;256.50;6502.40
55365;DHT22;41245;45.384;20.390;2022-09-21T05:12:25;256.70;6502.40
55365;DHT22;41245;45.384;20.390;2022-09-21T05:14:51;256.80;6502.40
55365;DHT22;41245;45.384;20.390;2022-09-21T05:17:17;256.90;6502.40
55365;DHT22;41245;45.384;20.390;2022-09-21T05:19:42;281.60;6528.00
55365;DHT22;41245;45.384;20.390;2022-09-21T05:22:08;281.70;6528.00
55365;DHT22;41245;45.384;20.390;2022-09-21T05:24:34;281.90;6528.00
55365;DHT22;41245;45.384;20.390;2022-09-21T05:27:00;282.00;6528.00
55365;DHT22;41245;45.384;20.390;2022-09-21T05:29:26;282.10;6528.00
55365;DHT22;41245;45.384;20.390;2022-09-21T05:32:05;282.10;6528.00
55365;DHT22;41245;45.384;20.390;2022-09-21T05:38:00;282.50;6528.00
55365;DHT22;41245;45.384;20.390;2022-09-21T05:40:05;307.20;128.00
55365;DHT22;41245;45.384;20.390;2022-09-21T05:42:32;307.40;128.00
55365;DHT22;41245;45.384;20.390;2022-09-21T05:44:58;307.70;128.00
55365;DHT22;41245;45.384;20.390;2022-09-21T05:48:28;307.90;128.00
55365;DHT22;41245;45.384;20.390;2022-09-21T05:53:44;308.00;128.00
55365;DHT22;41245;45.384;20.390;2022-09-21T05:56:26;332.80;128.00
55365;DHT22;41245;45.384;20.390;2022-09-21T06:04:19;333.20;128.00
55365;DHT22;41245;45.384;20.390;2022-09-21T06:06:45;333.60;128.00
55365;DHT22;41245;45.384;20.390;2022-09-21T06:09:11;358.60;128.00
55365;DHT22;41245;45.384;20.390;2022-09-21T06:11:37;359.10;128.00
55365;DHT22;41245;45.384;20.390;2022-09-21T06:14:02;359.30;128.00
55365;DHT22;41245;45.384;20.390;2022-09-21T06:16:39;384.20;128.00
55365;DHT22;41245;45.384;20.390;2022-09-21T06:19:04;384.10;128.00
55365;DHT22;41245;45.384;20.390;2022-09-21T06:21:30;359.00;128.00
55365;DHT22;41245;45.384;20.390;2022-09-21T06:23:57;358.70;128.00
55365;DHT22;41245;45.384;20.390;2022-09-21T06:26:23;358.50;128.00
55365;DHT22;41245;45.384;20.390;2022-09-21T06:28:49;333.70;128.00
55365;DHT22;41245;45.384;20.390;2022-09-21T06:31:14;333.50;128.00
55365;DHT22;41245;45.384;20.390;2022-09-21T06:33:40;333.30;128.00
55365;DHT22;41245;45.384;20.390;2022-09-21T06:36:06;333.10;128.00
55365;DHT22;41245;45.384;20.390;2022-09-21T06:38:31;333.00;128.00
55365;DHT22;41245;45.384;20.390;2022-09-21T06:41:03;332.80;128.00
55365;DHT22;41245;45.384;20.390;2022-09-21T06:43:30;308.10;128.00
55365;DHT22;41245;45.384;20.390;2022-09-21T06:45:58;308.00;128.00
55365;DHT22;41245;45.384;20.390;2022-09-21T06:48:24;308.00;128.00
55365;DHT22;41245;45.384;20.390;2022-09-21T06:50:58;308.00;128.00
55365;DHT22;41245;45.384;20.390;2022-09-21T06:53:25;308.00;128.00
55365;DHT22;41245;45.384;20.390;2022-09-21T06:55:51;308.00;128.00
55365;DHT22;41245;45.384;20.390;2022-09-21T06:58:17;308.10;128.00
55365;DHT22;41245;45.384;20.390;2022-09-21T07:00:44;332.80;128.00
55365;DHT22;41245;45.384;20.390;2022-09-21T07:03:12;333.00;128.00
55365;DHT22;41245;45.384;20.390;2022-09-21T07:05:38;333.00;128.00
55365;DHT22;41245;45.384;20.390;2022-09-21T07:08:04;333.00;128.00
55365;DHT22;41245;45.384;20.390;2022-09-21T07:10:30;333.00;128.00
55365;DHT22;41245;45.384;20.390;2022-09-21T07:13:02;333.00;128.00
55365;DHT22;41245;45.384;20.390;2022-09-21T07:15:28;333.10;128.00
55365;DHT22;41245;45.384;20.390;2022-09-21T07:17:54;333.40;128.00
55365;DHT22;41245;45.384;20.390;2022-09-21T07:20:20;333.70;128.00
55365;DHT22;41245;45.384;20.390;2022-09-21T07:22:46;358.40;128.00
55365;DHT22;41245;45.384;20.390;2022-09-21T07:25:12;358.60;128.00
55365;DHT22;41245;45.384;20.390;2022-09-21T07:27:39;358.60;128.00
55365;DHT22;41245;45.384;20.390;2022-09-21T07:30:06;358.80;128.00
55365;DHT22;41245;45.384;20.390;2022-09-21T07:32:32;358.80;128.00
55365;DHT22;41245;45.384;20.390;2022-09-21T07:34:58;358.80;128.00
55365;DHT22;41245;45.384;20.390;2022-09-21T07:37:24;358.90;128.00
55365;DHT22;41245;45.384;20.390;2022-09-21T07:39:51;359.00;128.00
55365;DHT22;41245;45.384;20.390;2022-09-21T07:42:17;358.90;128.00
55365;DHT22;41245;45.384;20.390;2022-09-21T07:44:45;358.90;128.00
55365;DHT22;41245;45.384;20.390;2022-09-21T07:47:11;358.80;128.00
55365;DHT22;41245;45.384;20.390;2022-09-21T07:49:38;358.70;128.00
55365;DHT22;41245;45.384;20.390;2022-09-21T07:52:04;358.90;128.00
55365;DHT22;41245;45.384;20.390;2022-09-21T07:54:30;358.90;128.00
55365;DHT22;41245;45.384;20.390;2022-09-21T07:56:56;359.00;128.00
55365;DHT22;41245;45.384;20.390;2022-09-21T07:59:40;358.90;128.00
55365;DHT22;41245;45.384;20.390;2022-09-21T08:02:06;359.00;128.00
55365;DHT22;41245;45.384;20.390;2022-09-21T08:04:32;359.10;128.00
55365;DHT22;41245;45.384;20.390;2022-09-21T08:06:57;359.00;128.00
55365;DHT22;41245;45.384;20.390;2022-09-21T08:09:23;359.20;128.00
55365;DHT22;41245;45.384;20.390;2022-09-21T08:11:49;384.00;128.00
55365;DHT22;41245;45.384;20.390;2022-09-21T08:14:16;384.30;128.00
55365;DHT22;41245;45.384;20.390;2022-09-21T08:16:46;384.70;128.00
55365;DHT22;41245;45.384;20.390;2022-09-21T08:19:13;384.50;128.00
55365;DHT22;41245;45.384;20.390;2022-09-21T08:21:39;384.50;128.00
55365;DHT22;41245;45.384;20.390;2022-09-21T08:24:05;384.50;128.00
55365;DHT22;41245;45.384;20.390;2022-09-21T08:26:31;384.30;128.00
55365;DHT22;41245;45.384;20.390;2022-09-21T08:28:58;384.40;128.00
55365;DHT22;41245;45.384;20.390;2022-09-21T08:31:24;384.10;128.00
55365;DHT22;41245;45.384;20.390;2022-09-21T08:33:50;384.00;128.00
55365;DHT22;41245;45.384;20.390;2022-09-21T08:36:17;359.30;128.00
55365;DHT22;41245;45.384;20.390;2022-09-21T08:38:44;359.00;128.00
55365;DHT22;41245;45.384;20.390;2022-09-21T08:41:56;359.10;128.00
55365;DHT22;41245;45.384;20.390;2022-09-21T08:46:40;384.20;128.00
55365;DHT22;41245;45.384;20.390;2022-09-21T08:49:19;384.10;128.00
55365;DHT22;41245;45.384;20.390;2022-09-21T08:51:55;384.10;128.00
55365;DHT22;41245;45.384;20.390;2022-09-21T08:54:35;384.10;128.00
55365;DHT22;41245;45.384;20.390;2022-09-21T08:57:03;384.00;128.00
55365;DHT22;41245;45.384;20.390;2022-09-21T08:59:29;359.20;128.00
55365;DHT22;41245;45.384;20.390;2022-09-21T09:04:40;384.00;128.00
55365;DHT22;41245;45.384;20.390;2022-09-21T09:10:09;384.00;128.00
55365;DHT22;41245;45.384;20.390;2022-09-21T09:18:31;384.80;128.00
55365;DHT22;41245;45.384;20.390;2022-09-21T09:21:08;410.10;128.00
55365;DHT22;41245;45.384;20.390;2022-09-21T09:23:40;410.50;128.00
55365;DHT22;41245;45.384;20.390;2022-09-21T09:26:22;410.40;128.00
55365;DHT22;41245;45.384;20.390;2022-09-21T09:29:02;410.20;128.00
55365;DHT22;41245;45.384;20.390;2022-09-21T09:31:33;410.30;128.00
55365;DHT22;41245;45.384;20.390;2022-09-21T09:34:19;435.50;128.00
55365;DHT22;41245;45.384;20.390;2022-09-21T09:37:04;460.80;128.00
55365;DHT22;41245;45.384;20.390;2022-09-21T09:39:34;436.10;128.00
55365;DHT22;41245;45.384;20.390;2022-09-21T09:45:42;436.10;128.00
55365;DHT22;41245;45.384;20.390;2022-09-21T09:50:55;435.60;128.00
55365;DHT22;41245;45.384;20.390;2022-09-21T09:53:24;435.50;128.00
55365;DHT22;41245;45.384;20.390;2022-09-21T09:55:55;435.40;128.00
55365;DHT22;41245;45.384;20.390;2022-09-21T09:58:44;435.20;128.00
55365;DHT22;41245;45.384;20.390;2022-09-21T10:01:44;410.50;128.00
55365;DHT22;41245;45.384;20.390;2022-09-21T10:04:16;435.30;128.00
55365;DHT22;41245;45.384;20.390;2022-09-21T10:06:43;435.60;128.00
55365;DHT22;41245;45.384;20.390;2022-09-21T10:09:32;435.70;128.00
55365;DHT22;41245;45.384;20.390;2022-09-21T10:12:19;435.40;128.00
55365;DHT22;41245;45.384;20.390;2022-09-21T10:14:51;410.40;128.00
55365;DHT22;41245;45.384;20.390;2022-09-21T10:17:18;410.30;128.00
55365;DHT22;41245;45.384;20.390;2022-09-21T10:19:44;410.10;128.00
55365;DHT22;41245;45.384;20.390;2022-09-21T10:22:16;409.80;128.00
55365;DHT22;41245;45.384;20.390;2022-09-21T10:24:49;409.80;128.00
55365;DHT22;41245;45.384;20.390;2022-09-21T10:27:25;409.70;128.00
55365;DHT22;41245;45.384;20.390;2022-09-21T10:29:51;384.90;128.00
55365;DHT22;41245;45.384;20.390;2022-09-21T10:32:25;384.90;128.00
55365;DHT22;41245;45.384;20.390;2022-09-21T10:37:36;384.20;128.00
55365;DHT22;41245;45.384;20.390;2022-09-21T10:40:08;384.20;128.00
55365;DHT22;41245;45.384;20.390;2022-09-21T10:42:52;384.20;128.00
55365;DHT22;41245;45.384;20.390;2022-09-21T10:50:43;384.30;128.00
55365;DHT22;41245;45.384;20.390;2022-09-21T10:55:43;384.50;128.00
55365;DHT22;41245;45.384;20.390;2022-09-21T10:58:13;384.60;128.00
55365;DHT22;41245;45.384;20.390;2022-09-21T11:00:44;384.70;128.00
55365;DHT22;41245;45.384;20.390;2022-09-21T11:06:02;384.90;128.00
55365;DHT22;41245;45.384;20.390;2022-09-21T11:08:36;409.70;128.00
55365;DHT22;41245;45.384;20.390;2022-09-21T11:13:49;410.10;128.00
55365;DHT22;41245;45.384;20.390;2022-09-21T11:16:36;410.20;128.00
55365;DHT22;41245;45.384;20.390;2022-09-21T11:19:49;410.50;128.00
55365;DHT22;41245;45.384;20.390;2022-09-21T11:27:58;435.20;128.00
55365;DHT22;41245;45.384;20.390;2022-09-21T11:30:46;435.20;128.00
55365;DHT22;41245;45.384;20.390;2022-09-21T11:41:59;435.50;128.00
55365;DHT22;41245;45.384;20.390;2022-09-21T11:44:41;435.50;128.00
55365;DHT22;41245;45.384;20.390;2022-09-21T11:58:42;435.40;128.00
55365;DHT22;41245;45.384;20.390;2022-09-21T12:12:18;333.60;2329.60
55365;DHT22;41245;45.384;20.390;2022-09-21T12:22:34;333.00;128.00
55365;DHT22;41245;45.384;20.390;2022-09-21T12:25:15;332.80;128.00
55365;DHT22;41245;45.384;20.390;2022-09-21T12:30:15;307.90;128.00
55365;DHT22;41245;45.384;20.390;2022-09-21T12:32:49;333.00;128.00
55365;DHT22;41245;45.384;20.390;2022-09-21T12:41:09;333.30;128.00
55365;DHT22;41245;45.384;20.390;2022-09-21T12:46:32;333.30;128.00
55365;DHT22;41245;45.384;20.390;2022-09-21T12:49:04;333.50;128.00
55365;DHT22;41245;45.384;20.390;2022-09-21T12:51:37;333.50;128.00
55365;DHT22;41245;45.384;20.390;2022-09-21T12:54:30;333.50;128.00
55365;DHT22;41245;45.384;20.390;2022-09-21T13:00:03;333.40;128.00
55365;DHT22;41245;45.384;20.390;2022-09-21T13:10:38;333.30;128.00
55365;DHT22;41245;45.384;20.390;2022-09-21T13:13:15;333.30;128.00
55365;DHT22;41245;45.384;20.390;2022-09-21T13:15:45;333.30;128.00
55365;DHT22;41245;45.384;20.390;2022-09-21T13:18:19;333.30;128.00
55365;DHT22;41245;45.384;20.390;2022-09-21T13:20:47;333.30;128.00
55365;DHT22;41245;45.384;20.390;2022-09-21T13:23:29;333.40;128.00
55365;DHT22;41245;45.384;20.390;2022-09-21T13:26:02;333.60;128.00
55365;DHT22;41245;45.384;20.390;2022-09-21T13:28:38;333.70;128.00
55365;DHT22;41245;45.384;20.390;2022-09-21T13:34:04;358.50;128.00
55365;DHT22;41245;45.384;20.390;2022-09-21T13:36:33;358.70;128.00
55365;DHT22;41245;45.384;20.390;2022-09-21T13:39:13;358.80;128.00
55365;DHT22;41245;45.384;20.390;2022-09-21T13:41:39;358.90;128.00
55365;DHT22;41245;45.384;20.390;2022-09-21T13:47:03;358.90;128.00
55365;DHT22;41245;45.384;20.390;2022-09-21T13:49:39;359.00;128.00
55365;DHT22;41245;45.384;20.390;2022-09-21T13:52:23;359.00;128.00
55365;DHT22;41245;45.384;20.390;2022-09-21T13:54:59;359.10;128.00
55365;DHT22;41245;45.384;20.390;2022-09-21T13:57:36;359.20;128.00
55365;DHT22;41245;45.384;20.390;2022-09-21T14:02:33;384.00;128.00
55365;DHT22;41245;45.384;20.390;2022-09-21T14:07:42;384.10;153.60
55365;DHT22;41245;45.384;20.390;2022-09-21T14:10:17;384.10;409.60
55365;DHT22;41245;45.384;20.390;2022-09-21T14:12:44;384.30;537.60
55365;DHT22;41245;45.384;20.390;2022-09-21T14:17:43;384.70;128.00
55365;DHT22;41245;45.384;20.390;2022-09-21T14:20:30;384.90;128.00
55365;DHT22;41245;45.384;20.390;2022-09-21T14:25:51;410.00;128.00
55365;DHT22;41245;45.384;20.390;2022-09-21T14:28:42;410.30;128.00
55365;DHT22;41245;45.384;20.390;2022-09-21T14:31:13;435.20;128.00
55365;DHT22;41245;45.384;20.390;2022-09-21T14:34:00;435.70;128.00
55365;DHT22;41245;45.384;20.390;2022-09-21T14:36:35;460.80;128.00
55365;DHT22;41245;45.384;20.390;2022-09-21T14:39:05;461.00;128.00
55365;DHT22;41245;45.384;20.390;2022-09-21T14:41:38;461.00;128.00
55365;DHT22;41245;45.384;20.390;2022-09-21T14:44:05;460.80;128.00
55365;DHT22;41245;45.384;20.390;2022-09-21T14:52:50;333.30;1996.80
55365;DHT22;41245;45.384;20.390;2022-09-21T14:58:18;358.60;1996.80
55365;DHT22;41245;45.384;20.390;2022-09-21T15:00:48;358.70;1996.80
55365;DHT22;41245;45.384;20.390;2022-09-21T15:03:45;358.70;1996.80
55365;DHT22;41245;45.384;20.390;2022-09-21T15:06:32;358.80;1996.80
55365;DHT22;41245;45.384;20.390;2022-09-21T15:09:35;358.90;1996.80
55365;DHT22;41245;45.384;20.390;2022-09-21T15:12:40;358.90;1996.80
55365;DHT22;41245;45.384;20.390;2022-09-21T15:17:58;358.80;1996.80
55365;DHT22;41245;45.384;20.390;2022-09-21T15:20:27;358.70;1996.80
55365;DHT22;41245;45.384;20.390;2022-09-21T15:22:58;358.60;1996.80
55365;DHT22;41245;45.384;20.390;2022-09-21T15:25:31;358.70;1996.80
55365;DHT22;41245;45.384;20.390;2022-09-21T15:27:58;358.50;1996.80
55365;DHT22;41245;45.384;20.390;2022-09-21T15:30:27;358.40;1996.80
55365;DHT22;41245;45.384;20.390;2022-09-21T15:32:56;333.70;1996.80
55365;DHT22;41245;45.384;20.390;2022-09-21T15:35:25;333.70;1996.80
55365;DHT22;41245;45.384;20.390;2022-09-21T15:37:53;333.70;1996.80
55365;DHT22;41245;45.384;20.390;2022-09-21T15:40:23;333.70;1996.80
55365;DHT22;41245;45.384;20.390;2022-09-21T15:45:52;333.60;1996.80
55365;DHT22;41245;45.384;20.390;2022-09-21T15:48:41;333.50;1996.80
55365;DHT22;41245;45.384;20.390;2022-09-21T15:51:33;333.50;1996.80
55365;DHT22;41245;45.384;20.390;2022-09-21T15:56:45;333.30;1996.80
55365;DHT22;41245;45.384;20.390;2022-09-21T15:59:15;333.30;1996.80
55365;DHT22;41245;45.384;20.390;2022-09-21T16:01:48;333.30;1996.80
55365;DHT22;41245;45.384;20.390;2022-09-21T16:04:17;333.10;1996.80
55365;DHT22;41245;45.384;20.390;2022-09-21T16:06:58;333.00;1996.80
55365;DHT22;41245;45.384;20.390;2022-09-21T16:11:54;332.90;1996.80
55365;DHT22;41245;45.384;20.390;2022-09-21T16:14:21;332.80;1996.80
55365;DHT22;41245;45.384;20.390;2022-09-21T16:17:26;332.80;1996.80
55365;DHT22;41245;45.384;20.390;2022-09-21T16:25:29;308.00;1971.20
55365;DHT22;41245;45.384;20.390;2022-09-21T16:30:43;307.90;1971.20
55365;DHT22;41245;45.384;20.390;2022-09-21T16:33:34;307.80;1971.20
55365;DHT22;41245;45.384;20.390;2022-09-21T16:38:51;307.70;1971.20
55365;DHT22;41245;45.384;20.390;2022-09-21T16:41:20;307.70;1971.20
55365;DHT22;41245;45.384;20.390;2022-09-21T16:43:47;307.60;1971.20
55365;DHT22;41245;45.384;20.390;2022-09-21T16:46:15;307.60;1971.20
55365;DHT22;41245;45.384;20.390;2022-09-21T16:48:42;307.40;1971.20
55365;DHT22;41245;45.384;20.390;2022-09-21T16:51:11;307.40;1971.20
55365;DHT22;41245;45.384;20.390;2022-09-21T16:53:37;307.40;1971.20
55365;DHT22;41245;45.384;20.390;2022-09-21T16:56:03;307.40;1971.20
55365;DHT22;41245;45.384;20.390;2022-09-21T16:58:29;307.30;1971.20
55365;DHT22;41245;45.384;20.390;2022-09-21T17:00:54;307.20;1971.20
55365;DHT22;41245;45.384;20.390;2022-09-21T17:03:22;307.20;1971.20
55365;DHT22;41245;45.384;20.390;2022-09-21T17:05:48;307.20;1971.20
55365;DHT22;41245;45.384;20.390;2022-09-21T17:08:14;307.20;1971.20
55365;DHT22;41245;45.384;20.390;2022-09-21T17:10:43;307.20;1971.20
55365;DHT22;41245;45.384;20.390;2022-09-21T17:13:10;282.50;1945.60
55365;DHT22;41245;45.384;20.390;2022-09-21T17:15:42;282.50;1945.60
55365;DHT22;41245;45.384;20.390;2022-09-21T17:18:10;282.50;1945.60
55365;DHT22;41245;45.384;20.390;2022-09-21T17:20:41;282.50;1945.60
55365;DHT22;41245;45.384;20.390;2022-09-21T17:23:08;282.50;1945.60
55365;DHT22;41245;45.384;20.390;2022-09-21T17:25:34;282.40;1945.60
55365;DHT22;41245;45.384;20.390;2022-09-21T17:28:02;282.30;1945.60
55365;DHT22;41245;45.384;20.390;2022-09-21T17:30:28;282.30;1945.60
55365;DHT22;41245;45.384;20.390;2022-09-21T17:32:54;282.30;1945.60
55365;DHT22;41245;45.384;20.390;2022-09-21T17:37:50;282.20;1945.60
55365;DHT22;41245;45.384;20.390;2022-09-21T17:40:15;282.10;1945.60
55365;DHT22;41245;45.384;20.390;2022-09-21T17:42:42;281.90;1945.60
55365;DHT22;41245;45.384;20.390;2022-09-21T17:47:44;282.30;1945.60
55365;DHT22;41245;45.384;20.390;2022-09-21T17:50:15;282.40;1945.60
55365;DHT22;41245;45.384;20.390;2022-09-21T17:52:42;282.40;1945.60
55365;DHT22;41245;45.384;20.390;2022-09-21T17:55:27;282.50;1945.60
55365;DHT22;41245;45.384;20.390;2022-09-21T18:03:30;282.40;1945.60
55365;DHT22;41245;45.384;20.390;2022-09-21T18:05:57;282.30;1945.60
55365;DHT22;41245;45.384;20.390;2022-09-21T18:08:27;282.20;1945.60
55365;DHT22;41245;45.384;20.390;2022-09-21T18:16:42;282.10;1945.60
55365;DHT22;41245;45.384;20.390;2022-09-21T18:19:31;282.20;1945.60
55365;DHT22;41245;45.384;20.390;2022-09-21T18:22:25;282.20;1945.60
55365;DHT22;41245;45.384;20.390;2022-09-21T18:24:54;282.30;1945.60
55365;DHT22;41245;45.384;20.390;2022-09-21T18:27:21;282.30;1945.60
55365;DHT22;41245;45.384;20.390;2022-09-21T18:29:48;282.20;1945.60